sensor_id;sensor_type;location;lat;lon;timestamp;P1;durP1;ratioP1;P2;durP2;ratioP2
53751;SDS011;41095;53.090;6.692;2023-05-20T00:00:07;9.85;;;5.50;;
53751;SDS011;41095;53.090;6.692;2023-05-20T00:02:33;12.77;;;5.43;;
53751;SDS011;41095;53.090;6.692;2023-05-20T00:04:59;8.65;;;5.65;;
53751;SDS011;41095;53.090;6.692;2023-05-20T00:07:25;9.00;;;5.88;;
53751;SDS011;41095;53.090;6.692;2023-05-20T00:09:51;10.80;;;5.05;;
53751;SDS011;41095;53.090;6.692;2023-05-20T00:12:17;9.38;;;5.72;;
53751;SDS011;41095;53.090;6.692;2023-05-20T00:14:42;7.78;;;5.50;;
53751;SDS011;41095;53.090;6.692;2023-05-20T00:17:08;7.40;;;4.78;;
53751;SDS011;41095;53.090;6.692;2023-05-20T00:19:34;7.10;;;4.78;;
53751;SDS011;41095;53.090;6.692;2023-05-20T00:21:59;6.45;;;4.65;;
53751;SDS011;41095;53.090;6.692;2023-05-20T00:24:25;9.20;;;5.63;;
53751;SDS011;41095;53.090;6.692;2023-05-20T00:26:52;8.50;;;5.25;;
53751;SDS011;41095;53.090;6.692;2023-05-20T00:29:18;10.80;;;5.47;;
53751;SDS011;41095;53.090;6.692;2023-05-20T00:31:45;10.35;;;5.50;;
53751;SDS011;41095;53.090;6.692;2023-05-20T00:34:11;12.07;;;6.28;;
53751;SDS011;41095;53.090;6.692;2023-05-20T00:36:37;8.23;;;4.90;;
53751;SDS011;41095;53.090;6.692;2023-05-20T00:39:02;10.05;;;5.10;;
53751;SDS011;41095;53.090;6.692;2023-05-20T00:41:28;10.85;;;6.18;;
53751;SDS011;41095;53.090;6.692;2023-05-20T00:43:54;7.45;;;5.50;;
53751;SDS011;41095;53.090;6.692;2023-05-20T00:46:21;8.55;;;5.93;;
53751;SDS011;41095;53.090;6.692;2023-05-20T00:48:47;10.55;;;6.07;;
53751;SDS011;41095;53.090;6.692;2023-05-20T00:51:15;10.18;;;6.00;;
53751;SDS011;41095;53.090;6.692;2023-05-20T00:53:41;9.30;;;4.70;;
53751;SDS011;41095;53.090;6.692;2023-05-20T00:56:07;12.90;;;6.22;;
53751;SDS011;41095;53.090;6.692;2023-05-20T00:58:34;11.82;;;6.22;;
53751;SDS011;41095;53.090;6.692;2023-05-20T01:01:01;16.00;;;6.70;;
53751;SDS011;41095;53.090;6.692;2023-05-20T01:03:27;7.50;;;6.07;;
53751;SDS011;41095;53.090;6.692;2023-05-20T01:05:53;10.73;;;5.85;;
53751;SDS011;41095;53.090;6.692;2023-05-20T01:08:19;6.07;;;4.93;;
53751;SDS011;41095;53.090;6.692;2023-05-20T01:10:47;9.55;;;6.60;;
53751;SDS011;41095;53.090;6.692;2023-05-20T01:13:16;9.52;;;5.22;;
53751;SDS011;41095;53.090;6.692;2023-05-20T01:15:46;12.48;;;5.68;;
53751;SDS011;41095;53.090;6.692;2023-05-20T01:18:14;9.65;;;6.25;;
53751;SDS011;41095;53.090;6.692;2023-05-20T01:20:48;7.85;;;6.13;;
53751;SDS011;41095;53.090;6.692;2023-05-20T01:23:15;7.70;;;5.30;;
53751;SDS011;41095;53.090;6.692;2023-05-20T01:25:41;6.18;;;5.22;;
53751;SDS011;41095;53.090;6.692;2023-05-20T01:28:07;10.65;;;6.03;;
53751;SDS011;41095;53.090;6.692;2023-05-20T01:30:37;10.90;;;5.40;;
53751;SDS011;41095;53.090;6.692;2023-05-20T01:33:09;5.05;;;4.55;;
53751;SDS011;41095;53.090;6.692;2023-05-20T01:35:36;8.50;;;5.72;;
53751;SDS011;41095;53.090;6.692;2023-05-20T01:38:05;10.98;;;6.18;;
53751;SDS011;41095;53.090;6.692;2023-05-20T01:40:31;8.32;;;5.75;;
53751;SDS011;41095;53.090;6.692;2023-05-20T01:42:58;8.15;;;4.97;;
53751;SDS011;41095;53.090;6.692;2023-05-20T01:45:26;11.70;;;5.65;;
53751;SDS011;41095;53.090;6.692;2023-05-20T01:47:52;8.80;;;5.03;;
53751;SDS011;41095;53.090;6.692;2023-05-20T01:50:18;5.35;;;4.72;;
53751;SDS011;41095;53.090;6.692;2023-05-20T01:52:43;7.45;;;5.50;;
53751;SDS011;41095;53.090;6.692;2023-05-20T01:55:09;12.50;;;6.53;;
53751;SDS011;41095;53.090;6.692;2023-05-20T01:57:35;9.48;;;5.38;;
53751;SDS011;41095;53.090;6.692;2023-05-20T02:00:01;8.52;;;5.15;;
53751;SDS011;41095;53.090;6.692;2023-05-20T02:02:27;6.55;;;4.88;;
53751;SDS011;41095;53.090;6.692;2023-05-20T02:04:53;8.95;;;5.55;;
53751;SDS011;41095;53.090;6.692;2023-05-20T02:07:19;8.02;;;5.93;;
53751;SDS011;41095;53.090;6.692;2023-05-20T02:09:45;7.28;;;4.78;;
53751;SDS011;41095;53.090;6.692;2023-05-20T02:12:11;5.97;;;4.80;;
53751;SDS011;41095;53.090;6.692;2023-05-20T02:14:44;12.52;;;5.18;;
53751;SDS011;41095;53.090;6.692;2023-05-20T02:17:11;9.27;;;5.05;;
53751;SDS011;41095;53.090;6.692;2023-05-20T02:19:40;9.43;;;6.43;;
53751;SDS011;41095;53.090;6.692;2023-05-20T02:22:06;9.18;;;5.45;;
53751;SDS011;41095;53.090;6.692;2023-05-20T02:24:32;8.48;;;4.97;;
53751;SDS011;41095;53.090;6.692;2023-05-20T02:26:58;10.32;;;5.05;;
53751;SDS011;41095;53.090;6.692;2023-05-20T02:29:24;12.05;;;5.95;;
53751;SDS011;41095;53.090;6.692;2023-05-20T02:31:50;12.43;;;5.20;;
53751;SDS011;41095;53.090;6.692;2023-05-20T02:34:16;9.80;;;5.45;;
53751;SDS011;41095;53.090;6.692;2023-05-20T02:36:45;6.85;;;5.03;;
53751;SDS011;41095;53.090;6.692;2023-05-20T02:39:10;8.93;;;5.95;;
53751;SDS011;41095;53.090;6.692;2023-05-20T02:41:36;5.80;;;5.20;;
53751;SDS011;41095;53.090;6.692;2023-05-20T02:44:02;10.35;;;5.25;;
53751;SDS011;41095;53.090;6.692;2023-05-20T02:46:28;9.43;;;5.43;;
53751;SDS011;41095;53.090;6.692;2023-05-20T02:48:53;7.32;;;5.45;;
53751;SDS011;41095;53.090;6.692;2023-05-20T02:51:19;6.75;;;4.40;;
53751;SDS011;41095;53.090;6.692;2023-05-20T02:53:45;6.97;;;5.13;;
53751;SDS011;41095;53.090;6.692;2023-05-20T02:56:12;9.10;;;5.18;;
53751;SDS011;41095;53.090;6.692;2023-05-20T02:58:38;9.23;;;6.60;;
53751;SDS011;41095;53.090;6.692;2023-05-20T03:01:03;8.38;;;6.25;;
53751;SDS011;41095;53.090;6.692;2023-05-20T03:03:29;8.15;;;5.10;;
53751;SDS011;41095;53.090;6.692;2023-05-20T03:05:55;5.75;;;5.13;;
53751;SDS011;41095;53.090;6.692;2023-05-20T03:08:21;7.13;;;4.95;;
53751;SDS011;41095;53.090;6.692;2023-05-20T03:10:47;8.95;;;6.30;;
53751;SDS011;41095;53.090;6.692;2023-05-20T03:13:13;10.10;;;5.40;;
53751;SDS011;41095;53.090;6.692;2023-05-20T03:15:39;10.05;;;4.90;;
53751;SDS011;41095;53.090;6.692;2023-05-20T03:18:06;4.38;;;3.97;;
53751;SDS011;41095;53.090;6.692;2023-05-20T03:20:35;5.90;;;3.45;;
53751;SDS011;41095;53.090;6.692;2023-05-20T03:23:02;6.63;;;4.55;;
53751;SDS011;41095;53.090;6.692;2023-05-20T03:25:28;5.07;;;4.45;;
53751;SDS011;41095;53.090;6.692;2023-05-20T03:27:55;6.05;;;4.47;;
53751;SDS011;41095;53.090;6.692;2023-05-20T03:30:22;6.78;;;4.40;;
53751;SDS011;41095;53.090;6.692;2023-05-20T03:32:48;7.05;;;4.55;;
53751;SDS011;41095;53.090;6.692;2023-05-20T03:35:14;6.03;;;4.47;;
53751;SDS011;41095;53.090;6.692;2023-05-20T03:37:40;6.40;;;4.28;;
53751;SDS011;41095;53.090;6.692;2023-05-20T03:40:06;4.45;;;3.97;;
53751;SDS011;41095;53.090;6.692;2023-05-20T03:42:34;4.75;;;3.80;;
53751;SDS011;41095;53.090;6.692;2023-05-20T03:45:01;4.10;;;3.38;;
53751;SDS011;41095;53.090;6.692;2023-05-20T03:47:27;6.93;;;4.03;;
53751;SDS011;41095;53.090;6.692;2023-05-20T03:49:53;4.25;;;3.47;;
53751;SDS011;41095;53.090;6.692;2023-05-20T03:52:19;4.07;;;3.70;;
53751;SDS011;41095;53.090;6.692;2023-05-20T03:54:44;5.30;;;3.70;;
53751;SDS011;41095;53.090;6.692;2023-05-20T03:57:10;5.18;;;3.70;;
53751;SDS011;41095;53.090;6.692;2023-05-20T03:59:36;8.25;;;4.50;;
53751;SDS011;41095;53.090;6.692;2023-05-20T04:02:02;5.03;;;3.35;;
53751;SDS011;41095;53.090;6.692;2023-05-20T04:04:28;4.65;;;3.63;;
53751;SDS011;41095;53.090;6.692;2023-05-20T04:06:54;4.78;;;3.50;;
53751;SDS011;41095;53.090;6.692;2023-05-20T04:09:20;4.70;;;3.05;;
53751;SDS011;41095;53.090;6.692;2023-05-20T04:11:47;10.27;;;3.75;;
53751;SDS011;41095;53.090;6.692;2023-05-20T04:14:13;4.68;;;3.03;;
53751;SDS011;41095;53.090;6.692;2023-05-20T04:16:39;4.63;;;3.33;;
53751;SDS011;41095;53.090;6.692;2023-05-20T04:19:05;3.63;;;2.88;;
53751;SDS011;41095;53.090;6.692;2023-05-20T04:21:31;5.47;;;3.42;;
53751;SDS011;41095;53.090;6.692;2023-05-20T04:23:57;5.65;;;3.17;;
53751;SDS011;41095;53.090;6.692;2023-05-20T04:26:22;4.60;;;3.00;;
53751;SDS011;41095;53.090;6.692;2023-05-20T04:28:48;6.05;;;3.72;;
53751;SDS011;41095;53.090;6.692;2023-05-20T04:31:14;3.38;;;2.63;;
53751;SDS011;41095;53.090;6.692;2023-05-20T04:33:40;3.95;;;2.33;;
53751;SDS011;41095;53.090;6.692;2023-05-20T04:36:08;10.40;;;3.15;;
53751;SDS011;41095;53.090;6.692;2023-05-20T04:38:36;2.85;;;2.05;;
53751;SDS011;41095;53.090;6.692;2023-05-20T04:41:02;3.47;;;2.80;;
53751;SDS011;41095;53.090;6.692;2023-05-20T04:43:28;2.50;;;2.30;;
53751;SDS011;41095;53.090;6.692;2023-05-20T04:45:57;4.40;;;2.58;;
53751;SDS011;41095;53.090;6.692;2023-05-20T04:48:30;5.25;;;2.90;;
53751;SDS011;41095;53.090;6.692;2023-05-20T04:50:56;6.00;;;3.03;;
53751;SDS011;41095;53.090;6.692;2023-05-20T04:53:21;4.25;;;2.80;;
53751;SDS011;41095;53.090;6.692;2023-05-20T04:55:47;4.03;;;2.72;;
53751;SDS011;41095;53.090;6.692;2023-05-20T04:58:18;3.53;;;3.00;;
53751;SDS011;41095;53.090;6.692;2023-05-20T05:00:44;3.42;;;2.65;;
53751;SDS011;41095;53.090;6.692;2023-05-20T05:03:10;4.88;;;2.70;;
53751;SDS011;41095;53.090;6.692;2023-05-20T05:05:39;3.05;;;2.35;;
53751;SDS011;41095;53.090;6.692;2023-05-20T05:08:06;2.30;;;2.10;;
53751;SDS011;41095;53.090;6.692;2023-05-20T05:10:33;3.53;;;1.85;;
53751;SDS011;41095;53.090;6.692;2023-05-20T05:12:59;4.60;;;2.40;;
53751;SDS011;41095;53.090;6.692;2023-05-20T05:15:25;3.65;;;2.33;;
53751;SDS011;41095;53.090;6.692;2023-05-20T05:17:51;6.15;;;3.25;;
53751;SDS011;41095;53.090;6.692;2023-05-20T05:20:17;4.53;;;2.42;;
53751;SDS011;41095;53.090;6.692;2023-05-20T05:22:43;3.88;;;2.47;;
53751;SDS011;41095;53.090;6.692;2023-05-20T05:25:09;3.20;;;2.55;;
53751;SDS011;41095;53.090;6.692;2023-05-20T05:27:36;4.28;;;2.25;;
53751;SDS011;41095;53.090;6.692;2023-05-20T05:30:02;3.45;;;2.25;;
53751;SDS011;41095;53.090;6.692;2023-05-20T05:32:30;3.65;;;2.15;;
53751;SDS011;41095;53.090;6.692;2023-05-20T05:34:56;3.05;;;2.05;;
53751;SDS011;41095;53.090;6.692;2023-05-20T05:37:22;3.00;;;2.15;;
53751;SDS011;41095;53.090;6.692;2023-05-20T05:39:48;2.67;;;2.05;;
53751;SDS011;41095;53.090;6.692;2023-05-20T05:42:14;2.00;;;1.80;;
53751;SDS011;41095;53.090;6.692;2023-05-20T05:44:39;2.03;;;1.60;;
53751;SDS011;41095;53.090;6.692;2023-05-20T05:47:05;2.00;;;1.80;;
53751;SDS011;41095;53.090;6.692;2023-05-20T05:49:31;3.50;;;2.03;;
53751;SDS011;41095;53.090;6.692;2023-05-20T05:51:57;1.75;;;1.63;;
53751;SDS011;41095;53.090;6.692;2023-05-20T05:54:23;2.50;;;2.20;;
53751;SDS011;41095;53.090;6.692;2023-05-20T05:56:50;3.33;;;2.17;;
53751;SDS011;41095;53.090;6.692;2023-05-20T05:59:16;2.80;;;1.90;;
53751;SDS011;41095;53.090;6.692;2023-05-20T06:01:41;2.03;;;1.85;;
53751;SDS011;41095;53.090;6.692;2023-05-20T06:04:07;2.80;;;1.98;;
53751;SDS011;41095;53.090;6.692;2023-05-20T06:06:33;2.58;;;1.75;;
53751;SDS011;41095;53.090;6.692;2023-05-20T06:08:59;4.28;;;1.85;;
53751;SDS011;41095;53.090;6.692;2023-05-20T06:11:24;2.67;;;1.90;;
53751;SDS011;41095;53.090;6.692;2023-05-20T06:13:50;4.85;;;1.52;;
53751;SDS011;41095;53.090;6.692;2023-05-20T06:16:16;2.03;;;1.40;;
53751;SDS011;41095;53.090;6.692;2023-05-20T06:18:42;4.30;;;1.90;;
53751;SDS011;41095;53.090;6.692;2023-05-20T06:21:10;5.47;;;2.10;;
53751;SDS011;41095;53.090;6.692;2023-05-20T06:23:36;4.45;;;1.67;;
53751;SDS011;41095;53.090;6.692;2023-05-20T06:26:01;2.13;;;1.50;;
53751;SDS011;41095;53.090;6.692;2023-05-20T06:28:28;2.58;;;1.67;;
53751;SDS011;41095;53.090;6.692;2023-05-20T06:30:54;2.40;;;1.60;;
53751;SDS011;41095;53.090;6.692;2023-05-20T06:33:22;3.45;;;1.60;;
53751;SDS011;41095;53.090;6.692;2023-05-20T06:35:51;1.92;;;1.40;;
53751;SDS011;41095;53.090;6.692;2023-05-20T06:38:19;3.45;;;1.50;;
53751;SDS011;41095;53.090;6.692;2023-05-20T06:40:45;4.82;;;1.95;;
53751;SDS011;41095;53.090;6.692;2023-05-20T06:43:12;3.90;;;1.75;;
53751;SDS011;41095;53.090;6.692;2023-05-20T06:45:38;3.22;;;1.60;;
53751;SDS011;41095;53.090;6.692;2023-05-20T06:48:04;2.05;;;1.55;;
53751;SDS011;41095;53.090;6.692;2023-05-20T06:50:31;2.97;;;1.50;;
53751;SDS011;41095;53.090;6.692;2023-05-20T06:52:57;1.70;;;1.38;;
53751;SDS011;41095;53.090;6.692;2023-05-20T06:55:23;2.75;;;1.50;;
53751;SDS011;41095;53.090;6.692;2023-05-20T06:57:48;2.08;;;1.25;;
53751;SDS011;41095;53.090;6.692;2023-05-20T07:00:14;2.33;;;1.10;;
53751;SDS011;41095;53.090;6.692;2023-05-20T07:02:40;2.75;;;1.50;;
53751;SDS011;41095;53.090;6.692;2023-05-20T07:05:07;2.53;;;1.48;;
53751;SDS011;41095;53.090;6.692;2023-05-20T07:07:33;1.50;;;1.40;;
53751;SDS011;41095;53.090;6.692;2023-05-20T07:09:59;2.20;;;1.60;;
53751;SDS011;41095;53.090;6.692;2023-05-20T07:12:25;3.58;;;2.28;;
53751;SDS011;41095;53.090;6.692;2023-05-20T07:14:51;7.22;;;1.67;;
53751;SDS011;41095;53.090;6.692;2023-05-20T07:17:17;2.88;;;1.50;;
53751;SDS011;41095;53.090;6.692;2023-05-20T07:19:42;3.70;;;1.75;;
53751;SDS011;41095;53.090;6.692;2023-05-20T07:22:08;1.95;;;1.75;;
53751;SDS011;41095;53.090;6.692;2023-05-20T07:24:35;1.88;;;1.20;;
53751;SDS011;41095;53.090;6.692;2023-05-20T07:27:01;2.42;;;1.48;;
53751;SDS011;41095;53.090;6.692;2023-05-20T07:29:27;2.60;;;1.40;;
53751;SDS011;41095;53.090;6.692;2023-05-20T07:31:52;2.65;;;1.50;;
53751;SDS011;41095;53.090;6.692;2023-05-20T07:34:18;3.28;;;2.20;;
53751;SDS011;41095;53.090;6.692;2023-05-20T07:36:44;2.60;;;1.85;;
53751;SDS011;41095;53.090;6.692;2023-05-20T07:39:10;6.07;;;1.95;;
53751;SDS011;41095;53.090;6.692;2023-05-20T07:41:36;2.22;;;1.30;;
53751;SDS011;41095;53.090;6.692;2023-05-20T07:44:05;4.63;;;1.80;;
53751;SDS011;41095;53.090;6.692;2023-05-20T07:46:33;1.67;;;1.58;;
53751;SDS011;41095;53.090;6.692;2023-05-20T07:48:59;1.55;;;1.45;;
53751;SDS011;41095;53.090;6.692;2023-05-20T07:51:24;2.78;;;1.92;;
53751;SDS011;41095;53.090;6.692;2023-05-20T07:53:50;1.88;;;1.77;;
53751;SDS011;41095;53.090;6.692;2023-05-20T07:56:16;4.88;;;1.80;;
53751;SDS011;41095;53.090;6.692;2023-05-20T07:58:42;2.72;;;1.60;;
53751;SDS011;41095;53.090;6.692;2023-05-20T08:01:08;1.92;;;1.73;;
53751;SDS011;41095;53.090;6.692;2023-05-20T08:03:34;3.30;;;1.85;;
53751;SDS011;41095;53.090;6.692;2023-05-20T08:06:01;3.60;;;1.83;;
53751;SDS011;41095;53.090;6.692;2023-05-20T08:08:27;2.50;;;1.70;;
53751;SDS011;41095;53.090;6.692;2023-05-20T08:10:54;4.13;;;2.00;;
53751;SDS011;41095;53.090;6.692;2023-05-20T08:13:20;2.85;;;2.20;;
53751;SDS011;41095;53.090;6.692;2023-05-20T08:15:46;5.80;;;1.92;;
53751;SDS011;41095;53.090;6.692;2023-05-20T08:18:13;1.98;;;1.77;;
53751;SDS011;41095;53.090;6.692;2023-05-20T08:20:39;4.50;;;1.83;;
53751;SDS011;41095;53.090;6.692;2023-05-20T08:23:06;4.07;;;2.05;;
53751;SDS011;41095;53.090;6.692;2023-05-20T08:25:32;5.45;;;1.70;;
53751;SDS011;41095;53.090;6.692;2023-05-20T08:28:00;2.47;;;1.77;;
53751;SDS011;41095;53.090;6.692;2023-05-20T08:30:28;5.72;;;2.13;;
53751;SDS011;41095;53.090;6.692;2023-05-20T08:32:54;3.70;;;1.98;;
53751;SDS011;41095;53.090;6.692;2023-05-20T08:35:20;1.42;;;1.33;;
53751;SDS011;41095;53.090;6.692;2023-05-20T08:37:47;3.08;;;2.15;;
53751;SDS011;41095;53.090;6.692;2023-05-20T08:40:13;1.88;;;1.70;;
53751;SDS011;41095;53.090;6.692;2023-05-20T08:42:40;4.55;;;1.73;;
53751;SDS011;41095;53.090;6.692;2023-05-20T08:45:12;2.58;;;1.67;;
53751;SDS011;41095;53.090;6.692;2023-05-20T08:47:41;2.63;;;2.08;;
53751;SDS011;41095;53.090;6.692;2023-05-20T08:50:08;3.95;;;2.95;;
53751;SDS011;41095;53.090;6.692;2023-05-20T08:52:36;4.10;;;2.17;;
53751;SDS011;41095;53.090;6.692;2023-05-20T08:55:06;2.35;;;1.85;;
53751;SDS011;41095;53.090;6.692;2023-05-20T08:57:33;3.35;;;1.90;;
53751;SDS011;41095;53.090;6.692;2023-05-20T09:00:01;2.72;;;1.83;;
53751;SDS011;41095;53.090;6.692;2023-05-20T09:05:02;3.75;;;2.22;;
53751;SDS011;41095;53.090;6.692;2023-05-20T09:07:29;2.90;;;1.95;;
53751;SDS011;41095;53.090;6.692;2023-05-20T09:09:55;3.10;;;2.42;;
53751;SDS011;41095;53.090;6.692;2023-05-20T09:12:22;2.83;;;2.22;;
53751;SDS011;41095;53.090;6.692;2023-05-20T09:14:48;3.83;;;2.10;;
53751;SDS011;41095;53.090;6.692;2023-05-20T09:17:14;2.38;;;2.08;;
53751;SDS011;41095;53.090;6.692;2023-05-20T09:19:41;3.95;;;2.45;;
53751;SDS011;41095;53.090;6.692;2023-05-20T09:22:07;4.65;;;2.13;;
53751;SDS011;41095;53.090;6.692;2023-05-20T09:24:33;2.95;;;2.17;;
53751;SDS011;41095;53.090;6.692;2023-05-20T09:26:58;2.05;;;1.85;;
53751;SDS011;41095;53.090;6.692;2023-05-20T09:29:25;3.83;;;2.10;;
53751;SDS011;41095;53.090;6.692;2023-05-20T09:31:50;2.45;;;2.10;;
53751;SDS011;41095;53.090;6.692;2023-05-20T09:34:18;5.25;;;2.40;;
53751;SDS011;41095;53.090;6.692;2023-05-20T09:36:45;3.35;;;2.38;;
53751;SDS011;41095;53.090;6.692;2023-05-20T09:39:15;4.30;;;2.38;;
53751;SDS011;41095;53.090;6.692;2023-05-20T09:44:35;2.35;;;2.15;;
53751;SDS011;41095;53.090;6.692;2023-05-20T09:47:02;2.22;;;2.03;;
53751;SDS011;41095;53.090;6.692;2023-05-20T09:49:31;4.63;;;2.10;;
53751;SDS011;41095;53.090;6.692;2023-05-20T09:51:58;6.15;;;2.45;;
53751;SDS011;41095;53.090;6.692;2023-05-20T09:54:25;4.03;;;2.10;;
53751;SDS011;41095;53.090;6.692;2023-05-20T09:56:52;4.15;;;1.92;;
53751;SDS011;41095;53.090;6.692;2023-05-20T09:59:19;2.78;;;2.40;;
53751;SDS011;41095;53.090;6.692;2023-05-20T10:01:46;4.65;;;2.30;;
53751;SDS011;41095;53.090;6.692;2023-05-20T10:04:12;2.72;;;2.15;;
53751;SDS011;41095;53.090;6.692;2023-05-20T10:14:49;2.25;;;2.00;;
53751;SDS011;41095;53.090;6.692;2023-05-20T10:17:36;6.65;;;2.88;;
53751;SDS011;41095;53.090;6.692;2023-05-20T10:20:08;3.67;;;2.45;;
53751;SDS011;41095;53.090;6.692;2023-05-20T10:22:36;4.28;;;2.15;;
53751;SDS011;41095;53.090;6.692;2023-05-20T10:25:05;4.65;;;2.72;;
53751;SDS011;41095;53.090;6.692;2023-05-20T10:27:44;2.55;;;2.35;;
53751;SDS011;41095;53.090;6.692;2023-05-20T10:30:18;2.72;;;2.42;;
53751;SDS011;41095;53.090;6.692;2023-05-20T10:32:48;3.67;;;2.47;;
53751;SDS011;41095;53.090;6.692;2023-05-20T10:35:24;5.93;;;2.53;;
53751;SDS011;41095;53.090;6.692;2023-05-20T10:37:51;2.67;;;2.05;;
53751;SDS011;41095;53.090;6.692;2023-05-20T10:40:19;2.83;;;2.13;;
53751;SDS011;41095;53.090;6.692;2023-05-20T10:42:46;3.30;;;2.35;;
53751;SDS011;41095;53.090;6.692;2023-05-20T10:45:25;5.03;;;2.25;;
53751;SDS011;41095;53.090;6.692;2023-05-20T10:47:58;3.70;;;3.33;;
53751;SDS011;41095;53.090;6.692;2023-05-20T10:50:27;2.60;;;2.10;;
53751;SDS011;41095;53.090;6.692;2023-05-20T10:53:04;3.90;;;2.75;;
53751;SDS011;41095;53.090;6.692;2023-05-20T10:58:03;4.88;;;2.40;;
53751;SDS011;41095;53.090;6.692;2023-05-20T11:00:30;4.30;;;2.60;;
53751;SDS011;41095;53.090;6.692;2023-05-20T11:02:58;3.95;;;2.90;;
53751;SDS011;41095;53.090;6.692;2023-05-20T11:05:25;2.60;;;2.22;;
53751;SDS011;41095;53.090;6.692;2023-05-20T11:07:59;6.20;;;3.03;;
53751;SDS011;41095;53.090;6.692;2023-05-20T11:10:26;3.03;;;2.58;;
53751;SDS011;41095;53.090;6.692;2023-05-20T11:12:52;4.80;;;2.65;;
53751;SDS011;41095;53.090;6.692;2023-05-20T11:15:17;3.38;;;2.20;;
53751;SDS011;41095;53.090;6.692;2023-05-20T11:17:56;2.75;;;2.22;;
53751;SDS011;41095;53.090;6.692;2023-05-20T11:20:23;5.93;;;2.22;;
53751;SDS011;41095;53.090;6.692;2023-05-20T11:22:50;3.38;;;2.50;;
53751;SDS011;41095;53.090;6.692;2023-05-20T11:25:16;3.45;;;2.40;;
53751;SDS011;41095;53.090;6.692;2023-05-20T11:27:43;2.83;;;2.20;;
53751;SDS011;41095;53.090;6.692;2023-05-20T11:30:12;3.15;;;1.98;;
53751;SDS011;41095;53.090;6.692;2023-05-20T11:33:01;2.40;;;2.17;;
53751;SDS011;41095;53.090;6.692;2023-05-20T11:35:29;4.30;;;1.85;;
53751;SDS011;41095;53.090;6.692;2023-05-20T11:37:56;6.55;;;2.00;;
53751;SDS011;41095;53.090;6.692;2023-05-20T11:40:25;3.45;;;2.00;;
53751;SDS011;41095;53.090;6.692;2023-05-20T11:42:52;3.92;;;2.10;;
53751;SDS011;41095;53.090;6.692;2023-05-20T11:45:22;3.22;;;1.90;;
53751;SDS011;41095;53.090;6.692;2023-05-20T11:47:58;3.00;;;2.13;;
53751;SDS011;41095;53.090;6.692;2023-05-20T11:50:28;2.47;;;2.03;;
53751;SDS011;41095;53.090;6.692;2023-05-20T11:52:58;2.78;;;2.22;;
53751;SDS011;41095;53.090;6.692;2023-05-20T11:55:26;3.80;;;2.10;;
53751;SDS011;41095;53.090;6.692;2023-05-20T11:57:52;3.03;;;2.45;;
53751;SDS011;41095;53.090;6.692;2023-05-20T12:00:18;2.90;;;2.47;;
53751;SDS011;41095;53.090;6.692;2023-05-20T12:02:44;2.97;;;2.00;;
53751;SDS011;41095;53.090;6.692;2023-05-20T12:05:10;5.00;;;2.63;;
53751;SDS011;41095;53.090;6.692;2023-05-20T12:07:37;3.17;;;2.10;;
53751;SDS011;41095;53.090;6.692;2023-05-20T12:10:03;4.07;;;2.22;;
53751;SDS011;41095;53.090;6.692;2023-05-20T12:12:29;2.75;;;1.88;;
53751;SDS011;41095;53.090;6.692;2023-05-20T12:14:55;3.40;;;1.95;;
53751;SDS011;41095;53.090;6.692;2023-05-20T12:17:21;4.35;;;2.10;;
53751;SDS011;41095;53.090;6.692;2023-05-20T12:19:47;3.55;;;2.10;;
53751;SDS011;41095;53.090;6.692;2023-05-20T12:22:12;3.25;;;2.20;;
53751;SDS011;41095;53.090;6.692;2023-05-20T12:24:38;6.78;;;2.13;;
53751;SDS011;41095;53.090;6.692;2023-05-20T12:27:04;3.40;;;2.13;;
53751;SDS011;41095;53.090;6.692;2023-05-20T12:29:30;2.70;;;2.25;;
53751;SDS011;41095;53.090;6.692;2023-05-20T12:31:56;4.05;;;2.05;;
53751;SDS011;41095;53.090;6.692;2023-05-20T12:34:22;2.38;;;2.17;;
53751;SDS011;41095;53.090;6.692;2023-05-20T12:36:48;4.55;;;2.40;;
53751;SDS011;41095;53.090;6.692;2023-05-20T12:39:13;3.00;;;2.00;;
53751;SDS011;41095;53.090;6.692;2023-05-20T12:41:41;4.60;;;2.28;;
53751;SDS011;41095;53.090;6.692;2023-05-20T12:44:07;2.15;;;1.90;;
53751;SDS011;41095;53.090;6.692;2023-05-20T12:46:34;4.22;;;2.28;;
53751;SDS011;41095;53.090;6.692;2023-05-20T12:49:00;3.97;;;2.00;;
53751;SDS011;41095;53.090;6.692;2023-05-20T12:51:26;2.97;;;2.33;;
53751;SDS011;41095;53.090;6.692;2023-05-20T12:53:51;3.70;;;2.55;;
53751;SDS011;41095;53.090;6.692;2023-05-20T12:56:17;2.78;;;2.55;;
53751;SDS011;41095;53.090;6.692;2023-05-20T12:58:44;3.30;;;2.63;;
53751;SDS011;41095;53.090;6.692;2023-05-20T13:01:09;3.67;;;2.17;;
53751;SDS011;41095;53.090;6.692;2023-05-20T13:03:35;6.05;;;2.92;;
53751;SDS011;41095;53.090;6.692;2023-05-20T13:06:01;2.65;;;2.08;;
53751;SDS011;41095;53.090;6.692;2023-05-20T13:08:28;3.40;;;2.25;;
53751;SDS011;41095;53.090;6.692;2023-05-20T13:10:53;3.53;;;2.53;;
53751;SDS011;41095;53.090;6.692;2023-05-20T13:13:19;5.47;;;2.35;;
53751;SDS011;41095;53.090;6.692;2023-05-20T13:15:45;3.42;;;2.50;;
53751;SDS011;41095;53.090;6.692;2023-05-20T13:18:13;4.65;;;2.70;;
53751;SDS011;41095;53.090;6.692;2023-05-20T13:20:41;3.95;;;2.45;;
53751;SDS011;41095;53.090;6.692;2023-05-20T13:23:07;2.92;;;2.70;;
53751;SDS011;41095;53.090;6.692;2023-05-20T13:25:33;3.67;;;2.58;;
53751;SDS011;41095;53.090;6.692;2023-05-20T13:27:59;5.28;;;2.67;;
53751;SDS011;41095;53.090;6.692;2023-05-20T13:30:25;3.38;;;2.22;;
53751;SDS011;41095;53.090;6.692;2023-05-20T13:32:52;4.85;;;2.15;;
53751;SDS011;41095;53.090;6.692;2023-05-20T13:35:18;6.25;;;2.80;;
53751;SDS011;41095;53.090;6.692;2023-05-20T13:37:43;2.92;;;2.40;;
53751;SDS011;41095;53.090;6.692;2023-05-20T13:40:09;6.75;;;2.85;;
53751;SDS011;41095;53.090;6.692;2023-05-20T13:42:35;4.50;;;2.50;;
53751;SDS011;41095;53.090;6.692;2023-05-20T13:45:01;2.67;;;2.00;;
53751;SDS011;41095;53.090;6.692;2023-05-20T13:47:27;2.45;;;2.20;;
53751;SDS011;41095;53.090;6.692;2023-05-20T13:49:53;5.32;;;2.85;;
53751;SDS011;41095;53.090;6.692;2023-05-20T13:52:18;5.68;;;2.88;;
53751;SDS011;41095;53.090;6.692;2023-05-20T13:54:44;4.00;;;2.40;;
53751;SDS011;41095;53.090;6.692;2023-05-20T13:57:11;3.50;;;2.30;;
53751;SDS011;41095;53.090;6.692;2023-05-20T13:59:37;2.75;;;2.25;;
53751;SDS011;41095;53.090;6.692;2023-05-20T14:02:03;2.40;;;2.15;;
53751;SDS011;41095;53.090;6.692;2023-05-20T14:04:29;2.92;;;2.50;;
53751;SDS011;41095;53.090;6.692;2023-05-20T14:06:55;4.38;;;2.45;;
53751;SDS011;41095;53.090;6.692;2023-05-20T14:09:21;5.53;;;2.65;;
53751;SDS011;41095;53.090;6.692;2023-05-20T14:11:47;4.80;;;2.78;;
53751;SDS011;41095;53.090;6.692;2023-05-20T14:14:12;5.57;;;2.40;;
53751;SDS011;41095;53.090;6.692;2023-05-20T14:16:38;4.93;;;2.38;;
53751;SDS011;41095;53.090;6.692;2023-05-20T14:19:04;2.42;;;2.13;;
53751;SDS011;41095;53.090;6.692;2023-05-20T14:21:30;5.38;;;2.25;;
53751;SDS011;41095;53.090;6.692;2023-05-20T14:23:56;4.78;;;2.13;;
53751;SDS011;41095;53.090;6.692;2023-05-20T14:26:23;3.35;;;1.90;;
53751;SDS011;41095;53.090;6.692;2023-05-20T14:28:48;3.05;;;2.20;;
53751;SDS011;41095;53.090;6.692;2023-05-20T14:31:14;3.05;;;2.13;;
53751;SDS011;41095;53.090;6.692;2023-05-20T14:33:40;2.70;;;2.50;;
53751;SDS011;41095;53.090;6.692;2023-05-20T14:36:06;4.88;;;2.40;;
53751;SDS011;41095;53.090;6.692;2023-05-20T14:38:32;3.38;;;2.60;;
53751;SDS011;41095;53.090;6.692;2023-05-20T14:40:57;2.65;;;2.05;;
53751;SDS011;41095;53.090;6.692;2023-05-20T14:43:23;3.33;;;2.63;;
53751;SDS011;41095;53.090;6.692;2023-05-20T14:45:48;4.63;;;2.33;;
53751;SDS011;41095;53.090;6.692;2023-05-20T14:48:14;4.93;;;2.10;;
53751;SDS011;41095;53.090;6.692;2023-05-20T14:50:40;3.30;;;2.20;;
53751;SDS011;41095;53.090;6.692;2023-05-20T14:53:05;3.60;;;2.65;;
53751;SDS011;41095;53.090;6.692;2023-05-20T14:55:31;4.38;;;2.20;;
53751;SDS011;41095;53.090;6.692;2023-05-20T14:57:57;5.80;;;2.63;;